createdAt,value
2023-01-17T00:02:23.892Z,28.60
2023-01-17T00:05:10.686Z,23.50
2023-01-17T00:07:57.366Z,21.70
2023-01-17T00:10:27.309Z,21.60
2023-01-17T00:12:57.992Z,20.60
2023-01-17T00:15:27.940Z,18.70
2023-01-17T00:17:56.011Z,14.70
2023-01-17T00:20:45.628Z,7.60
2023-01-17T00:23:38.156Z,8.40
2023-01-17T00:28:39.794Z,5.90
2023-01-17T00:31:09.938Z,5.60
2023-01-17T00:33:38.300Z,8.20
2023-01-17T00:36:07.102Z,4.70
2023-01-17T00:38:38.537Z,4.80
2023-01-17T00:41:09.951Z,8.70
2023-01-17T00:43:56.681Z,8.20
2023-01-17T00:46:43.387Z,7.60
2023-01-17T00:49:30.824Z,4.30
2023-01-17T00:52:17.327Z,5.90
2023-01-17T00:55:03.942Z,6.30
2023-01-17T00:57:51.074Z,4.10
2023-01-17T01:00:38.489Z,9.60
2023-01-17T01:03:29.888Z,6.50
2023-01-17T01:06:16.629Z,8.10
2023-01-17T01:09:03.610Z,6.30
2023-01-17T01:11:50.241Z,7.10
2023-01-17T01:14:37.430Z,9.00
2023-01-17T01:17:24.133Z,7.10
2023-01-17T01:20:10.984Z,6.80
2023-01-17T01:22:57.656Z,10.00
2023-01-17T01:25:44.558Z,7.80
2023-01-17T01:28:33.325Z,9.60
2023-01-17T01:31:21.513Z,9.50
2023-01-17T01:33:53.707Z,9.90
2023-01-17T01:36:22.315Z,9.50
2023-01-17T01:38:50.417Z,10.30
2023-01-17T01:41:18.558Z,7.80
2023-01-17T01:43:46.515Z,7.60
2023-01-17T01:46:30.500Z,7.30
2023-01-17T01:49:19.012Z,10.90
2023-01-17T01:51:53.031Z,7.90
2023-01-17T01:54:25.820Z,8.60
2023-01-17T01:56:56.697Z,9.70
2023-01-17T01:59:26.173Z,9.20
2023-01-17T02:01:56.206Z,7.10
2023-01-17T02:04:26.710Z,8.40
2023-01-17T02:07:07.414Z,8.10
2023-01-17T02:09:35.529Z,9.00
2023-01-17T02:12:05.040Z,6.90
2023-01-17T02:14:33.106Z,7.40
2023-01-17T02:17:04.353Z,8.20
2023-01-17T02:19:47.599Z,5.50
2023-01-17T02:22:40.532Z,6.40
2023-01-17T02:25:44.744Z,5.30
2023-01-17T02:28:27.872Z,5.80
2023-01-17T02:31:09.562Z,5.60
2023-01-17T02:33:47.047Z,5.40
2023-01-17T02:36:28.235Z,5.80
2023-01-17T02:39:08.309Z,7.40
2023-01-17T02:41:51.500Z,6.30
2023-01-17T02:44:21.013Z,3.90
2023-01-17T02:46:53.013Z,5.90
2023-01-17T02:49:26.679Z,3.80
2023-01-17T02:51:57.478Z,5.00
2023-01-17T02:54:50.552Z,4.70
2023-01-17T02:57:33.078Z,6.10
2023-01-17T03:03:02.398Z,5.10
2023-01-17T03:05:42.706Z,5.40
2023-01-17T03:08:13.024Z,9.40
2023-01-17T03:10:42.685Z,9.30
2023-01-17T03:13:10.653Z,10.20
2023-01-17T03:15:40.236Z,12.90
2023-01-17T03:18:14.173Z,11.30
2023-01-17T03:20:42.541Z,9.60
2023-01-17T03:23:10.751Z,11.20
2023-01-17T03:25:38.893Z,12.70
2023-01-17T03:28:07.278Z,11.20
2023-01-17T03:30:35.455Z,11.10
2023-01-17T03:33:03.714Z,8.10
2023-01-17T03:35:31.896Z,7.20
2023-01-17T03:38:00.268Z,10.90
2023-01-17T03:40:28.336Z,7.50
2023-01-17T03:42:56.279Z,8.60
2023-01-17T03:45:24.381Z,10.20
2023-01-17T03:47:52.517Z,5.50
2023-01-17T03:50:20.714Z,7.30
2023-01-17T03:52:48.994Z,6.10
2023-01-17T03:55:17.578Z,4.90
2023-01-17T03:57:45.644Z,5.90
2023-01-17T04:00:14.328Z,3.40
2023-01-17T04:02:42.433Z,3.90
2023-01-17T04:05:10.894Z,3.80
2023-01-17T04:07:39.272Z,4.00
2023-01-17T04:10:08.264Z,4.30
2023-01-17T04:12:36.524Z,5.00
2023-01-17T04:15:05.006Z,4.60
2023-01-17T04:17:33.683Z,4.20
2023-01-17T04:20:01.873Z,7.40
2023-01-17T04:22:31.793Z,4.60
2023-01-17T04:24:59.964Z,4.10
2023-01-17T04:27:28.230Z,6.80
2023-01-17T04:29:56.827Z,4.10
2023-01-17T04:32:25.089Z,3.60
2023-01-17T04:34:53.379Z,2.30
2023-01-17T04:37:21.432Z,2.10
2023-01-17T04:39:49.439Z,1.10
2023-01-17T04:42:17.480Z,4.90
2023-01-17T04:44:45.538Z,3.40
2023-01-17T04:47:13.926Z,3.10
2023-01-17T04:49:44.115Z,3.60
2023-01-17T04:52:12.726Z,2.80
2023-01-17T04:54:41.723Z,3.60
2023-01-17T04:57:09.724Z,4.50
2023-01-17T04:59:37.772Z,3.30
2023-01-17T05:02:05.838Z,4.40
2023-01-17T05:04:34.322Z,4.90
2023-01-17T05:07:02.582Z,4.20
2023-01-17T05:09:30.853Z,2.50
2023-01-17T05:11:59.038Z,3.40
2023-01-17T05:14:27.518Z,2.60
2023-01-17T05:16:57.641Z,3.40
2023-01-17T05:19:27.140Z,2.70
2023-01-17T05:21:55.303Z,4.30
2023-01-17T05:24:23.490Z,5.30
2023-01-17T05:26:54.977Z,4.50
2023-01-17T05:29:23.308Z,5.40
2023-01-17T05:31:51.481Z,5.60
2023-01-17T05:34:19.660Z,4.70
2023-01-17T05:36:47.933Z,6.00
2023-01-17T05:39:16.718Z,4.50
2023-01-17T05:41:45.505Z,5.30
2023-01-17T05:44:15.422Z,7.20
2023-01-17T05:46:44.164Z,7.00
2023-01-17T05:49:12.277Z,8.30
2023-01-17T05:51:40.550Z,4.10
2023-01-17T05:54:09.035Z,4.60
2023-01-17T05:56:37.103Z,4.60
2023-01-17T05:59:05.101Z,5.90
2023-01-17T06:01:33.442Z,4.90
2023-01-17T06:04:01.616Z,5.00
2023-01-17T06:06:30.001Z,6.10
2023-01-17T06:08:58.173Z,5.20
2023-01-17T06:11:26.866Z,6.80
2023-01-17T06:13:55.030Z,7.40
2023-01-17T06:16:23.494Z,7.90
2023-01-17T06:18:51.592Z,7.90
2023-01-17T06:21:19.978Z,8.50
2023-01-17T06:23:48.347Z,7.30
2023-01-17T06:26:17.222Z,8.70
2023-01-17T06:28:45.410Z,8.30
2023-01-17T06:31:13.846Z,5.90
2023-01-17T06:33:42.097Z,8.80
2023-01-17T06:36:10.128Z,11.70
2023-01-17T06:38:38.195Z,10.90
2023-01-17T06:41:06.415Z,9.70
2023-01-17T06:43:35.153Z,10.40
2023-01-17T06:46:03.340Z,12.50
2023-01-17T06:48:31.820Z,12.90
2023-01-17T06:50:59.878Z,12.60
2023-01-17T06:53:27.773Z,10.40
2023-01-17T06:55:57.823Z,11.60
2023-01-17T06:58:26.139Z,9.30
2023-01-17T07:00:55.207Z,9.70
2023-01-17T07:03:27.430Z,9.30
2023-01-17T07:08:25.485Z,8.60
2023-01-17T07:10:59.056Z,7.40
2023-01-17T07:13:28.643Z,5.30
2023-01-17T07:16:00.220Z,6.10
2023-01-17T07:18:29.445Z,8.00
2023-01-17T07:20:58.245Z,5.40
2023-01-17T07:23:27.223Z,5.40
2023-01-17T07:25:57.440Z,6.80
2023-01-17T07:28:27.464Z,9.40
2023-01-17T07:30:55.632Z,10.60
2023-01-17T07:33:23.816Z,9.80
2023-01-17T07:35:52.292Z,9.20
2023-01-17T07:38:20.552Z,5.60
2023-01-17T07:40:48.630Z,5.10
2023-01-17T07:43:17.617Z,4.20
2023-01-17T07:45:54.378Z,3.60
2023-01-17T07:48:25.037Z,3.60
2023-01-17T07:50:57.648Z,4.30
2023-01-17T07:53:28.557Z,2.60
2023-01-17T07:56:02.231Z,2.80
2023-01-17T07:58:31.180Z,2.40
2023-01-17T08:01:08.581Z,2.00
2023-01-17T08:03:41.684Z,1.80
2023-01-17T08:06:23.505Z,3.50
2023-01-17T08:08:58.975Z,2.90
2023-01-17T08:11:27.173Z,3.70
2023-01-17T08:13:59.491Z,2.50
2023-01-17T08:16:28.902Z,1.60
2023-01-17T08:18:57.988Z,3.90
2023-01-17T08:21:26.066Z,3.20
2023-01-17T08:23:54.237Z,3.60
2023-01-17T08:26:23.486Z,1.70
2023-01-17T08:28:57.285Z,1.60
2023-01-17T08:31:31.267Z,1.70
2023-01-17T08:34:00.954Z,1.90
2023-01-17T08:36:31.417Z,1.60
2023-01-17T08:38:59.565Z,1.50
2023-01-17T08:41:27.977Z,1.10
2023-01-17T08:43:57.127Z,0.90
2023-01-17T08:46:25.505Z,2.30
2023-01-17T08:48:59.191Z,0.90
2023-01-17T08:51:28.118Z,2.10
2023-01-17T08:53:56.836Z,1.10
2023-01-17T08:56:27.097Z,1.30
2023-01-17T08:58:55.487Z,1.20
2023-01-17T09:01:23.995Z,1.20
2023-01-17T09:03:52.717Z,5.00
2023-01-17T09:06:21.628Z,0.80
2023-01-17T09:08:54.890Z,2.70
2023-01-17T09:11:23.005Z,1.50
2023-01-17T09:13:51.076Z,1.20
2023-01-17T09:16:19.192Z,1.20
2023-01-17T09:18:47.460Z,0.80
2023-01-17T09:21:17.773Z,2.10
2023-01-17T09:23:46.036Z,1.10
2023-01-17T09:26:34.469Z,1.10
2023-01-17T09:29:04.276Z,1.20
2023-01-17T09:31:32.864Z,1.50
2023-01-17T09:34:02.194Z,0.70
2023-01-17T09:36:34.166Z,0.40
2023-01-17T09:39:03.119Z,0.50
2023-01-17T09:41:34.490Z,0.60
2023-01-17T09:44:10.103Z,0.50
2023-01-17T09:46:42.980Z,0.50
2023-01-17T09:49:19.258Z,0.40
2023-01-17T09:51:50.754Z,0.70
2023-01-17T09:54:26.712Z,0.70
2023-01-17T09:57:04.458Z,1.10
2023-01-17T10:00:09.702Z,0.50
2023-01-17T10:03:06.336Z,0.60
2023-01-17T10:05:37.583Z,1.50
2023-01-17T10:08:24.090Z,1.80
2023-01-17T10:11:22.065Z,0.40
2023-01-17T10:14:14.808Z,1.30
2023-01-17T10:17:02.533Z,1.50
2023-01-17T10:20:04.306Z,1.60
2023-01-17T10:22:54.514Z,2.30
2023-01-17T10:25:48.781Z,0.90
2023-01-17T10:28:25.859Z,1.90
2023-01-17T10:31:24.733Z,1.50
2023-01-17T10:33:55.396Z,0.80
2023-01-17T10:36:23.559Z,2.40
2023-01-17T10:38:55.424Z,0.80
2023-01-17T10:41:23.586Z,1.10
2023-01-17T10:44:02.206Z,0.60
2023-01-17T10:46:38.563Z,1.30
2023-01-17T10:49:16.907Z,0.80
2023-01-17T10:52:06.681Z,0.80
2023-01-17T10:54:54.187Z,0.40
2023-01-17T10:57:27.872Z,0.70
2023-01-17T11:00:00.718Z,2.00
2023-01-17T11:02:36.838Z,0.70
2023-01-17T11:05:21.825Z,0.90
2023-01-17T11:08:13.636Z,0.80
2023-01-17T11:10:46.630Z,0.70
2023-01-17T11:13:23.836Z,0.40
2023-01-17T11:16:00.956Z,1.00
2023-01-17T11:18:37.156Z,1.70
2023-01-17T11:21:13.700Z,2.60
2023-01-17T11:23:48.984Z,0.80
2023-01-17T11:26:30.125Z,0.50
2023-01-17T11:29:26.872Z,1.20
2023-01-17T11:31:58.823Z,0.80
2023-01-17T11:37:09.940Z,1.30
2023-01-17T11:39:38.196Z,0.80
2023-01-17T11:42:26.945Z,0.90
2023-01-17T11:44:55.330Z,1.40
2023-01-17T11:47:23.607Z,0.40
2023-01-17T11:49:51.781Z,0.40
2023-01-17T11:52:26.352Z,0.40
2023-01-17T11:54:55.812Z,2.00
2023-01-17T11:57:33.430Z,0.40
2023-01-17T12:00:20.001Z,0.50
2023-01-17T12:03:07.122Z,0.60
2023-01-17T12:05:53.780Z,0.40
2023-01-17T12:08:21.895Z,2.20
2023-01-17T12:11:20.076Z,1.90
2023-01-17T12:14:01.809Z,0.60
2023-01-17T12:17:07.931Z,0.90
2023-01-17T12:20:01.662Z,1.80
2023-01-17T12:23:14.066Z,0.50
2023-01-17T12:26:04.298Z,0.60
2023-01-17T12:28:44.972Z,1.50
2023-01-17T12:31:38.371Z,1.60
2023-01-17T12:34:28.000Z,0.30
2023-01-17T12:37:05.199Z,1.90
2023-01-17T12:39:39.308Z,0.30
2023-01-17T12:42:22.428Z,0.40
2023-01-17T12:44:57.906Z,1.00
2023-01-17T12:47:26.865Z,1.60
2023-01-17T12:50:18.689Z,1.80
2023-01-17T12:53:03.137Z,0.90
2023-01-17T12:56:00.700Z,0.50
2023-01-17T12:58:38.606Z,0.70
2023-01-17T13:01:39.917Z,0.50
2023-01-17T13:04:46.892Z,1.00
2023-01-17T13:07:38.018Z,1.00
2023-01-17T13:10:32.069Z,0.50
2023-01-17T13:13:12.390Z,0.30
2023-01-17T13:15:43.119Z,0.80
2023-01-17T13:18:18.176Z,1.70
2023-01-17T13:20:46.435Z,0.40
2023-01-17T13:23:40.597Z,1.10
2023-01-17T13:26:34.169Z,0.60
2023-01-17T13:29:27.336Z,0.60
2023-01-17T13:32:28.887Z,0.50
2023-01-17T13:35:03.221Z,1.80
2023-01-17T13:37:37.233Z,4.00
2023-01-17T13:40:54.191Z,0.80
2023-01-17T13:43:26.347Z,2.30
2023-01-17T13:46:00.006Z,2.80
2023-01-17T13:48:31.346Z,1.80
2023-01-17T13:51:03.642Z,1.40
2023-01-17T13:53:33.332Z,0.80
2023-01-17T13:56:18.636Z,6.40
2023-01-17T13:58:58.042Z,1.00
2023-01-17T14:01:26.457Z,1.40
2023-01-17T14:03:55.304Z,1.60
2023-01-17T14:06:40.712Z,1.20
2023-01-17T14:09:24.522Z,1.40
2023-01-17T14:11:57.398Z,1.30
2023-01-17T14:14:41.134Z,4.70
2023-01-17T14:17:25.702Z,3.20
2023-01-17T14:20:01.193Z,0.80
2023-01-17T14:22:36.476Z,1.20
2023-01-17T14:25:15.349Z,2.50
2023-01-17T14:28:19.070Z,3.00
2023-01-17T14:30:55.370Z,0.80
2023-01-17T14:33:34.919Z,1.70
2023-01-17T14:36:23.360Z,1.00
2023-01-17T14:38:51.532Z,1.70
2023-01-17T14:41:24.803Z,1.80
2023-01-17T14:43:53.932Z,1.90
2023-01-17T14:46:34.909Z,2.10
2023-01-17T14:49:06.501Z,3.10
2023-01-17T14:51:35.620Z,1.90
2023-01-17T14:54:15.860Z,1.70
2023-01-17T14:56:44.664Z,2.60
2023-01-17T14:59:21.800Z,4.40
2023-01-17T15:02:07.082Z,4.30
2023-01-17T15:04:39.956Z,3.20
2023-01-17T15:07:17.012Z,5.00
2023-01-17T15:09:46.438Z,4.80
2023-01-17T15:12:15.912Z,4.50
2023-01-17T15:14:46.752Z,3.00
2023-01-17T15:17:25.054Z,6.10
2023-01-17T15:20:01.751Z,5.40
2023-01-17T15:22:30.880Z,4.80
2023-01-17T15:24:59.900Z,3.30
2023-01-17T15:27:28.886Z,5.20
2023-01-17T15:30:02.334Z,5.50
2023-01-17T15:32:33.845Z,5.90
2023-01-17T15:35:03.404Z,3.60
2023-01-17T15:37:34.941Z,2.20
2023-01-17T15:40:18.903Z,2.10
2023-01-17T15:42:59.499Z,1.20
2023-01-17T15:45:33.727Z,2.10
2023-01-17T15:48:45.154Z,2.70
2023-01-17T15:51:14.611Z,6.10
2023-01-17T15:53:44.833Z,8.40
2023-01-17T15:56:22.720Z,7.50
2023-01-17T15:58:51.411Z,6.00
2023-01-17T16:01:31.422Z,4.50
2023-01-17T16:04:00.291Z,7.30
2023-01-17T16:06:45.763Z,8.70
2023-01-17T16:09:25.062Z,7.50
2023-01-17T16:11:53.344Z,6.10
2023-01-17T16:14:21.718Z,7.70
2023-01-17T16:16:53.923Z,6.70
2023-01-17T16:19:22.983Z,8.80
2023-01-17T16:21:51.658Z,5.90
2023-01-17T16:24:19.980Z,5.70
2023-01-17T16:26:50.053Z,3.60
2023-01-17T16:29:20.793Z,3.50
2023-01-17T16:31:49.171Z,4.90
2023-01-17T16:34:17.667Z,3.60
2023-01-17T16:36:46.653Z,8.10
2023-01-17T16:39:16.359Z,5.80
2023-01-17T16:41:44.986Z,36.30
2023-01-17T16:44:13.007Z,3.50
2023-01-17T16:46:41.278Z,3.20
2023-01-17T16:49:09.611Z,4.10
2023-01-17T16:51:38.951Z,3.00
2023-01-17T16:54:07.133Z,5.30
2023-01-17T16:56:35.707Z,3.50
2023-01-17T16:59:03.993Z,2.40
2023-01-17T17:01:32.531Z,2.20
2023-01-17T17:04:01.047Z,7.00
2023-01-17T17:06:31.451Z,5.40
2023-01-17T17:11:31.095Z,3.30
2023-01-17T17:14:00.398Z,3.20
2023-01-17T17:16:30.721Z,3.00
2023-01-17T17:19:01.598Z,3.00
2023-01-17T17:21:32.805Z,3.10
2023-01-17T17:24:01.997Z,3.70
2023-01-17T17:26:34.193Z,2.40
2023-01-17T17:29:03.104Z,2.90
2023-01-17T17:31:31.882Z,4.30
2023-01-17T17:34:03.898Z,4.10
2023-01-17T17:36:33.729Z,3.60
2023-01-17T17:39:04.567Z,3.00
2023-01-17T17:41:34.771Z,2.20
2023-01-17T17:44:04.118Z,3.40
2023-01-17T17:46:35.189Z,4.20
2023-01-17T17:49:05.123Z,2.70
2023-01-17T17:51:39.448Z,3.30
2023-01-17T17:54:10.634Z,3.30
2023-01-17T17:56:39.902Z,4.90
2023-01-17T17:59:09.925Z,15.90
2023-01-17T18:01:38.954Z,5.60
2023-01-17T18:04:09.003Z,5.70
2023-01-17T18:06:38.690Z,6.60
2023-01-17T18:09:09.188Z,4.60
2023-01-17T18:11:39.738Z,7.00
2023-01-17T18:14:12.877Z,6.70
2023-01-17T18:19:20.375Z,5.10
2023-01-17T18:21:51.450Z,5.40
2023-01-17T18:24:22.103Z,4.30
2023-01-17T18:26:57.809Z,5.70
2023-01-17T18:29:27.416Z,5.20
2023-01-17T18:31:56.818Z,5.10
2023-01-17T18:34:29.612Z,6.30
2023-01-17T18:36:58.995Z,5.30
2023-01-17T18:39:30.105Z,4.70
2023-01-17T18:41:59.151Z,4.70
2023-01-17T18:44:28.218Z,4.20
2023-01-17T18:47:05.097Z,6.30
2023-01-17T18:49:35.274Z,5.10
2023-01-17T18:52:03.589Z,6.00
2023-01-17T18:54:34.012Z,5.50
2023-01-17T18:57:02.094Z,5.60
2023-01-17T18:59:30.458Z,6.70
2023-01-17T19:01:59.165Z,8.10
2023-01-17T19:04:28.765Z,5.20
2023-01-17T19:06:57.246Z,6.20
2023-01-17T19:09:25.815Z,4.50
2023-01-17T19:11:53.893Z,5.00
2023-01-17T19:14:22.694Z,4.90
2023-01-17T19:16:51.062Z,4.50
2023-01-17T19:19:20.249Z,4.70
2023-01-17T19:21:51.693Z,4.00
2023-01-17T19:24:20.187Z,5.10
2023-01-17T19:26:54.195Z,6.30
2023-01-17T19:29:23.097Z,4.70
2023-01-17T19:31:51.355Z,5.50
2023-01-17T19:34:20.461Z,5.80
2023-01-17T19:36:49.156Z,5.60
2023-01-17T19:39:17.630Z,6.10
2023-01-17T19:41:47.150Z,5.00
2023-01-17T19:44:15.662Z,6.20
2023-01-17T19:46:47.399Z,6.10
2023-01-17T19:49:19.816Z,7.70
2023-01-17T19:51:49.758Z,5.50
2023-01-17T19:54:18.341Z,5.80
2023-01-17T19:56:46.699Z,6.50
2023-01-17T19:59:15.493Z,4.60
2023-01-17T20:01:43.744Z,4.40
2023-01-17T20:04:12.973Z,4.40
2023-01-17T20:06:42.161Z,8.20
2023-01-17T20:09:10.331Z,3.50
2023-01-17T20:11:42.301Z,7.00
2023-01-17T20:14:14.273Z,5.00
2023-01-17T20:16:44.085Z,6.40
2023-01-17T20:19:12.170Z,4.90
2023-01-17T20:21:40.526Z,3.80
2023-01-17T20:24:11.248Z,5.80
2023-01-17T20:26:40.976Z,4.50
2023-01-17T20:29:13.346Z,5.70
2023-01-17T20:31:43.080Z,4.30
2023-01-17T20:34:13.644Z,5.40
2023-01-17T20:36:42.477Z,6.10
2023-01-17T20:39:13.597Z,4.70
2023-01-17T20:41:43.716Z,4.90
2023-01-17T20:44:15.288Z,6.60
2023-01-17T20:46:44.065Z,5.80
2023-01-17T20:49:15.772Z,6.10
2023-01-17T20:51:45.493Z,6.10
2023-01-17T20:54:15.661Z,6.10
2023-01-17T20:56:46.874Z,7.50
2023-01-17T20:59:18.554Z,6.30
2023-01-17T21:01:47.326Z,5.70
2023-01-17T21:04:16.800Z,6.40
2023-01-17T21:06:45.328Z,5.00
2023-01-17T21:09:15.436Z,5.80
2023-01-17T21:11:43.730Z,4.50
2023-01-17T21:14:11.968Z,4.60
2023-01-17T21:16:40.737Z,5.00
2023-01-17T21:19:12.194Z,5.10
2023-01-17T21:21:40.723Z,4.60
2023-01-17T21:24:09.400Z,7.10
2023-01-17T21:26:39.038Z,6.30
2023-01-17T21:29:08.703Z,7.70
2023-01-17T21:31:38.830Z,5.50
2023-01-17T21:34:08.627Z,8.80
2023-01-17T21:36:39.697Z,5.60
2023-01-17T21:39:13.369Z,7.00
2023-01-17T21:41:43.225Z,7.80
2023-01-17T21:44:20.348Z,5.30
2023-01-17T21:46:49.574Z,7.80
2023-01-17T21:49:18.255Z,5.40
2023-01-17T21:51:55.296Z,5.80
2023-01-17T21:54:45.055Z,4.80
2023-01-17T21:57:33.569Z,7.10
2023-01-17T22:00:01.594Z,4.50
2023-01-17T22:02:29.724Z,6.70
2023-01-17T22:04:57.987Z,7.10
2023-01-17T22:07:29.279Z,4.50
2023-01-17T22:09:57.706Z,5.80
2023-01-17T22:12:26.185Z,4.20
2023-01-17T22:14:54.666Z,4.40
2023-01-17T22:17:22.904Z,6.60
2023-01-17T22:19:51.216Z,7.10
2023-01-17T22:22:19.317Z,4.90
2023-01-17T22:24:47.351Z,4.70
2023-01-17T22:27:15.433Z,7.20
2023-01-17T22:29:43.391Z,7.40
2023-01-17T22:32:11.381Z,6.90
2023-01-17T22:34:39.558Z,6.30
2023-01-17T22:37:10.307Z,6.20
2023-01-17T22:39:39.265Z,6.50
2023-01-17T22:42:07.759Z,6.20
2023-01-17T22:44:36.016Z,8.20
2023-01-17T22:47:04.067Z,6.10
2023-01-17T22:49:32.139Z,7.00
2023-01-17T22:52:00.849Z,9.10
2023-01-17T22:54:29.010Z,7.90
2023-01-17T22:56:57.088Z,7.30
2023-01-17T22:59:25.261Z,9.00
2023-01-17T23:01:53.633Z,8.50
2023-01-17T23:04:21.601Z,8.50
2023-01-17T23:06:49.664Z,8.20
2023-01-17T23:09:18.049Z,8.40
2023-01-17T23:11:52.833Z,7.30
2023-01-17T23:14:24.031Z,10.00
2023-01-17T23:17:14.626Z,7.40
2023-01-17T23:19:43.932Z,5.80
2023-01-17T23:22:21.220Z,7.90
2023-01-17T23:24:50.949Z,8.50
2023-01-17T23:27:45.507Z,7.70
2023-01-17T23:30:16.467Z,7.20
2023-01-17T23:32:56.635Z,11.80
2023-01-17T23:35:33.534Z,10.70
2023-01-17T23:38:21.004Z,7.80
2023-01-17T23:41:07.913Z,7.20
2023-01-17T23:43:37.392Z,5.30
2023-01-17T23:46:05.808Z,7.00
2023-01-17T23:48:33.877Z,5.40
2023-01-17T23:51:09.628Z,4.30
2023-01-17T23:53:38.951Z,4.40
2023-01-17T23:56:14.884Z,2.70
2023-01-17T23:58:43.157Z,4.10
